sensor_id;sensor_type;location;lat;lon;timestamp;pressure;altitude;pressure_sealevel;temperature;humidity
37792;BME280;29527;55.766;37.570;2023-07-13T00:01:51;98890.06;;;14.07;64.68
37792;BME280;29527;55.766;37.570;2023-07-13T00:04:19;98895.59;;;14.22;64.07
37792;BME280;29527;55.766;37.570;2023-07-13T00:06:45;98891.06;;;14.14;63.67
37792;BME280;29527;55.766;37.570;2023-07-13T00:09:13;98901.50;;;14.09;64.11
37792;BME280;29527;55.766;37.570;2023-07-13T00:11:39;98908.41;;;14.12;64.80
37792;BME280;29527;55.766;37.570;2023-07-13T00:14:06;98907.56;;;14.11;64.50
37792;BME280;29527;55.766;37.570;2023-07-13T00:16:34;98887.06;;;14.02;64.73
37792;BME280;29527;55.766;37.570;2023-07-13T00:19:00;98904.19;;;14.09;64.99
37792;BME280;29527;55.766;37.570;2023-07-13T00:21:26;98895.44;;;14.07;65.23
37792;BME280;29527;55.766;37.570;2023-07-13T00:23:52;98898.16;;;14.07;65.05
37792;BME280;29527;55.766;37.570;2023-07-13T00:26:17;98894.78;;;14.05;65.27
37792;BME280;29527;55.766;37.570;2023-07-13T00:28:43;98894.59;;;14.06;65.43
37792;BME280;29527;55.766;37.570;2023-07-13T00:31:10;98866.34;;;13.86;65.36
37792;BME280;29527;55.766;37.570;2023-07-13T00:33:36;98893.25;;;14.02;65.50
37792;BME280;29527;55.766;37.570;2023-07-13T00:36:02;98895.78;;;14.04;65.52
37792;BME280;29527;55.766;37.570;2023-07-13T00:38:28;98896.81;;;14.03;65.75
37792;BME280;29527;55.766;37.570;2023-07-13T00:40:54;98890.41;;;14.04;65.70
37792;BME280;29527;55.766;37.570;2023-07-13T00:43:22;98898.47;;;14.04;65.92
37792;BME280;29527;55.766;37.570;2023-07-13T00:48:17;98879.31;;;13.99;65.68
37792;BME280;29527;55.766;37.570;2023-07-13T00:50:46;98903.53;;;14.07;66.12
37792;BME280;29527;55.766;37.570;2023-07-13T00:53:13;98893.25;;;14.02;66.00
37792;BME280;29527;55.766;37.570;2023-07-13T00:55:40;98892.09;;;14.05;66.28
37792;BME280;29527;55.766;37.570;2023-07-13T00:58:06;98887.41;;;13.99;66.18
37792;BME280;29527;55.766;37.570;2023-07-13T01:00:34;98893.94;;;14.04;66.25
37792;BME280;29527;55.766;37.570;2023-07-13T01:03:00;98887.06;;;14.02;66.41
37792;BME280;29527;55.766;37.570;2023-07-13T01:05:31;98893.25;;;14.02;66.36
37792;BME280;29527;55.766;37.570;2023-07-13T01:07:58;98888.88;;;14.01;66.44
37792;BME280;29527;55.766;37.570;2023-07-13T01:10:25;98880.31;;;13.98;66.39
37792;BME280;29527;55.766;37.570;2023-07-13T01:12:51;98875.78;;;13.98;66.64
37792;BME280;29527;55.766;37.570;2023-07-13T01:15:55;98887.19;;;14.17;66.72
37792;BME280;29527;55.766;37.570;2023-07-13T01:18:25;98879.31;;;14.07;66.39
37792;BME280;29527;55.766;37.570;2023-07-13T01:20:55;98877.63;;;14.06;66.41
37792;BME280;29527;55.766;37.570;2023-07-13T01:23:22;98878.31;;;14.00;66.70
37792;BME280;29527;55.766;37.570;2023-07-13T01:25:47;98887.88;;;14.02;66.80
37792;BME280;29527;55.766;37.570;2023-07-13T01:28:13;98884.00;;;14.05;66.57
37792;BME280;29527;55.766;37.570;2023-07-13T01:30:40;98888.38;;;14.06;66.52
37792;BME280;29527;55.766;37.570;2023-07-13T01:33:07;98883.00;;;14.06;66.84
37792;BME280;29527;55.766;37.570;2023-07-13T01:35:35;98873.91;;;14.07;66.46
37792;BME280;29527;55.766;37.570;2023-07-13T01:38:01;98837.75;;;13.85;66.46
37792;BME280;29527;55.766;37.570;2023-07-13T01:40:28;98877.63;;;14.06;66.67
37792;BME280;29527;55.766;37.570;2023-07-13T01:42:55;98870.22;;;14.08;66.51
37792;BME280;29527;55.766;37.570;2023-07-13T01:45:20;98869.53;;;14.06;66.25
37792;BME280;29527;55.766;37.570;2023-07-13T01:47:46;98855.09;;;13.99;66.59
37792;BME280;29527;55.766;37.570;2023-07-13T01:52:55;98870.88;;;14.10;66.44
37792;BME280;29527;55.766;37.570;2023-07-13T01:55:21;98866.50;;;14.09;66.44
37792;BME280;29527;55.766;37.570;2023-07-13T01:57:47;98870.88;;;14.10;66.23
37792;BME280;29527;55.766;37.570;2023-07-13T02:00:14;98863.66;;;14.11;66.42
37792;BME280;29527;55.766;37.570;2023-07-13T02:02:40;98870.19;;;14.16;66.43
37792;BME280;29527;55.766;37.570;2023-07-13T02:05:06;98863.78;;;14.17;66.52
37792;BME280;29527;55.766;37.570;2023-07-13T02:07:32;98862.44;;;14.21;66.51
37792;BME280;29527;55.766;37.570;2023-07-13T02:09:58;98852.38;;;14.24;66.17
37792;BME280;29527;55.766;37.570;2023-07-13T02:12:23;98833.88;;;14.12;66.23
37792;BME280;29527;55.766;37.570;2023-07-13T02:14:49;98849.13;;;14.28;66.19
37792;BME280;29527;55.766;37.570;2023-07-13T02:17:15;98860.56;;;14.30;66.00
37792;BME280;29527;55.766;37.570;2023-07-13T02:19:41;98860.06;;;14.35;66.04
37792;BME280;29527;55.766;37.570;2023-07-13T02:22:06;98855.53;;;14.35;65.66
37792;BME280;29527;55.766;37.570;2023-07-13T02:24:32;98858.72;;;14.39;65.89
37792;BME280;29527;55.766;37.570;2023-07-13T02:26:57;98861.72;;;14.44;65.31
37792;BME280;29527;55.766;37.570;2023-07-13T02:29:23;98818.81;;;14.34;65.37
37792;BME280;29527;55.766;37.570;2023-07-13T02:31:48;98843.16;;;14.58;65.12
37792;BME280;29527;55.766;37.570;2023-07-13T02:34:14;98839.41;;;14.67;64.96
37792;BME280;29527;55.766;37.570;2023-07-13T02:36:39;98843.13;;;14.74;64.83
37792;BME280;29527;55.766;37.570;2023-07-13T02:39:06;98844.47;;;14.78;64.58
37792;BME280;29527;55.766;37.570;2023-07-13T02:41:32;98828.97;;;14.81;64.18
37792;BME280;29527;55.766;37.570;2023-07-13T02:43:58;98839.38;;;14.84;64.08
37792;BME280;29527;55.766;37.570;2023-07-13T02:46:30;98843.59;;;14.86;63.81
37792;BME280;29527;55.766;37.570;2023-07-13T02:48:56;98836.34;;;14.87;64.13
37792;BME280;29527;55.766;37.570;2023-07-13T02:51:21;98822.56;;;14.82;64.33
37792;BME280;29527;55.766;37.570;2023-07-13T02:53:47;98826.25;;;14.81;64.34
37792;BME280;29527;55.766;37.570;2023-07-13T02:56:12;98843.91;;;14.91;63.82
37792;BME280;29527;55.766;37.570;2023-07-13T02:58:37;98836.34;;;14.87;64.04
37792;BME280;29527;55.766;37.570;2023-07-13T03:01:12;98840.78;;;15.03;63.94
37792;BME280;29527;55.766;37.570;2023-07-13T03:03:37;98830.91;;;14.95;63.95
37792;BME280;29527;55.766;37.570;2023-07-13T03:06:04;98805.41;;;14.74;63.62
37792;BME280;29527;55.766;37.570;2023-07-13T03:08:32;98824.84;;;14.93;63.91
37792;BME280;29527;55.766;37.570;2023-07-13T03:11:03;98823.66;;;14.96;63.96
37792;BME280;29527;55.766;37.570;2023-07-13T03:13:29;98818.09;;;14.97;64.09
37792;BME280;29527;55.766;37.570;2023-07-13T03:15:54;98823.28;;;14.99;63.82
37792;BME280;29527;55.766;37.570;2023-07-13T03:18:20;98816.59;;;14.95;63.81
37792;BME280;29527;55.766;37.570;2023-07-13T03:20:45;98832.91;;;15.01;63.76
37792;BME280;29527;55.766;37.570;2023-07-13T03:23:11;98841.66;;;15.03;63.56
37792;BME280;29527;55.766;37.570;2023-07-13T03:25:36;98834.56;;;15.02;63.78
37792;BME280;29527;55.766;37.570;2023-07-13T03:28:02;98841.28;;;15.06;63.45
37792;BME280;29527;55.766;37.570;2023-07-13T03:30:28;98821.13;;;14.94;63.57
37792;BME280;29527;55.766;37.570;2023-07-13T03:32:53;98836.19;;;15.12;63.69
37792;BME280;29527;55.766;37.570;2023-07-13T03:35:19;98836.03;;;15.13;63.58
37792;BME280;29527;55.766;37.570;2023-07-13T03:37:44;98839.25;;;15.09;63.36
37792;BME280;29527;55.766;37.570;2023-07-13T03:40:10;98844.41;;;15.18;63.43
37792;BME280;29527;55.766;37.570;2023-07-13T03:42:36;98836.50;;;15.17;63.42
37792;BME280;29527;55.766;37.570;2023-07-13T03:45:01;98838.16;;;15.18;63.53
37792;BME280;29527;55.766;37.570;2023-07-13T03:47:29;98840.19;;;15.24;63.32
37792;BME280;29527;55.766;37.570;2023-07-13T03:49:55;98835.09;;;15.29;63.05
37792;BME280;29527;55.766;37.570;2023-07-13T03:52:20;98848.50;;;15.38;63.10
37792;BME280;29527;55.766;37.570;2023-07-13T03:54:46;98803.44;;;15.23;62.71
37792;BME280;29527;55.766;37.570;2023-07-13T03:57:11;98840.28;;;15.54;62.62
37792;BME280;29527;55.766;37.570;2023-07-13T03:59:37;98809.69;;;15.47;62.18
37792;BME280;29527;55.766;37.570;2023-07-13T04:02:02;98829.66;;;15.76;61.63
37792;BME280;29527;55.766;37.570;2023-07-13T04:04:29;98846.09;;;15.89;61.32
37792;BME280;29527;55.766;37.570;2023-07-13T04:06:57;98848.00;;;16.04;60.96
37792;BME280;29527;55.766;37.570;2023-07-13T04:09:24;98836.28;;;16.12;60.55
37792;BME280;29527;55.766;37.570;2023-07-13T04:11:50;98845.03;;;16.29;60.09
37792;BME280;29527;55.766;37.570;2023-07-13T04:14:16;98836.41;;;16.33;59.65
37792;BME280;29527;55.766;37.570;2023-07-13T04:16:42;98856.06;;;16.42;59.60
37792;BME280;29527;55.766;37.570;2023-07-13T04:19:08;98866.66;;;16.44;59.53
37792;BME280;29527;55.766;37.570;2023-07-13T04:21:36;98846.34;;;16.33;59.71
37792;BME280;29527;55.766;37.570;2023-07-13T04:24:03;98862.19;;;16.36;60.01
37792;BME280;29527;55.766;37.570;2023-07-13T04:26:29;98824.34;;;16.21;59.52
37792;BME280;29527;55.766;37.570;2023-07-13T04:28:56;98844.59;;;16.40;59.68
37792;BME280;29527;55.766;37.570;2023-07-13T04:31:22;98847.94;;;16.42;59.60
37792;BME280;29527;55.766;37.570;2023-07-13T04:33:48;98847.94;;;16.42;59.73
37792;BME280;29527;55.766;37.570;2023-07-13T04:36:15;98850.19;;;16.39;59.49
37792;BME280;29527;55.766;37.570;2023-07-13T04:38:41;98856.22;;;16.41;59.80
37792;BME280;29527;55.766;37.570;2023-07-13T04:41:08;98846.28;;;16.41;59.65
37792;BME280;29527;55.766;37.570;2023-07-13T04:43:34;98835.91;;;16.30;59.79
37792;BME280;29527;55.766;37.570;2023-07-13T04:46:05;98829.31;;;16.32;60.06
37792;BME280;29527;55.766;37.570;2023-07-13T04:48:30;98809.94;;;16.14;60.26
37792;BME280;29527;55.766;37.570;2023-07-13T04:50:57;98833.22;;;16.30;60.12
37792;BME280;29527;55.766;37.570;2023-07-13T04:53:23;98835.91;;;16.30;60.00
37792;BME280;29527;55.766;37.570;2023-07-13T04:55:49;98828.19;;;16.27;60.38
37792;BME280;29527;55.766;37.570;2023-07-13T04:58:14;98839.09;;;16.33;60.20
37792;BME280;29527;55.766;37.570;2023-07-13T05:00:40;98841.22;;;16.38;60.16
37792;BME280;29527;55.766;37.570;2023-07-13T05:03:05;98843.19;;;16.44;59.78
37792;BME280;29527;55.766;37.570;2023-07-13T05:05:31;98847.94;;;16.57;59.64
37792;BME280;29527;55.766;37.570;2023-07-13T05:07:57;98849.03;;;16.63;59.56
37792;BME280;29527;55.766;37.570;2023-07-13T05:10:23;98851.81;;;16.85;58.61
37792;BME280;29527;55.766;37.570;2023-07-13T05:12:49;98849.94;;;17.15;58.09
37792;BME280;29527;55.766;37.570;2023-07-13T05:15:15;98847.56;;;17.49;56.91
37792;BME280;29527;55.766;37.570;2023-07-13T05:17:40;98820.22;;;17.87;55.30
37792;BME280;29527;55.766;37.570;2023-07-13T05:20:08;98857.44;;;18.64;53.67
37792;BME280;29527;55.766;37.570;2023-07-13T05:22:34;98846.63;;;19.19;52.05
37792;BME280;29527;55.766;37.570;2023-07-13T05:25:04;98860.72;;;19.90;50.78
37792;BME280;29527;55.766;37.570;2023-07-13T05:27:31;98845.78;;;20.67;48.62
37792;BME280;29527;55.766;37.570;2023-07-13T05:29:57;98842.63;;;21.61;46.10
37792;BME280;29527;55.766;37.570;2023-07-13T05:32:22;98856.03;;;22.20;44.26
37792;BME280;29527;55.766;37.570;2023-07-13T05:34:48;98845.97;;;22.40;44.04
37792;BME280;29527;55.766;37.570;2023-07-13T05:37:13;98835.66;;;22.42;43.77
37792;BME280;29527;55.766;37.570;2023-07-13T05:39:39;98821.19;;;22.22;43.83
37792;BME280;29527;55.766;37.570;2023-07-13T05:42:05;98807.69;;;22.09;44.13
37792;BME280;29527;55.766;37.570;2023-07-13T05:44:31;98843.38;;;22.26;44.00
37792;BME280;29527;55.766;37.570;2023-07-13T05:46:56;98835.88;;;22.21;43.66
37792;BME280;29527;55.766;37.570;2023-07-13T05:49:22;98835.78;;;22.10;43.79
37792;BME280;29527;55.766;37.570;2023-07-13T05:51:48;98835.28;;;21.94;44.12
37792;BME280;29527;55.766;37.570;2023-07-13T05:54:14;98835.38;;;21.80;44.42
37792;BME280;29527;55.766;37.570;2023-07-13T05:56:39;98838.00;;;21.69;43.98
37792;BME280;29527;55.766;37.570;2023-07-13T05:59:05;98821.38;;;21.45;44.53
37792;BME280;29527;55.766;37.570;2023-07-13T06:01:31;98837.53;;;21.40;45.11
37792;BME280;29527;55.766;37.570;2023-07-13T06:03:57;98837.97;;;21.36;45.19
37792;BME280;29527;55.766;37.570;2023-07-13T06:06:22;98832.00;;;21.53;44.48
37792;BME280;29527;55.766;37.570;2023-07-13T06:08:48;98823.31;;;21.70;43.93
37792;BME280;29527;55.766;37.570;2023-07-13T06:11:17;98834.38;;;22.00;42.81
37792;BME280;29527;55.766;37.570;2023-07-13T06:13:43;98819.94;;;22.18;42.32
37792;BME280;29527;55.766;37.570;2023-07-13T06:16:09;98829.28;;;22.29;41.87
37792;BME280;29527;55.766;37.570;2023-07-13T06:18:35;98825.81;;;22.41;41.42
37792;BME280;29527;55.766;37.570;2023-07-13T06:21:16;98813.06;;;22.60;41.38
37792;BME280;29527;55.766;37.570;2023-07-13T06:23:42;98808.66;;;22.59;40.84
37792;BME280;29527;55.766;37.570;2023-07-13T06:26:09;98816.03;;;22.58;40.71
37792;BME280;29527;55.766;37.570;2023-07-13T06:28:35;98811.16;;;22.60;40.50
37792;BME280;29527;55.766;37.570;2023-07-13T06:31:02;98803.06;;;22.72;40.40
37792;BME280;29527;55.766;37.570;2023-07-13T06:33:29;98803.63;;;22.93;40.19
37792;BME280;29527;55.766;37.570;2023-07-13T06:35:55;98787.66;;;23.27;39.36
37792;BME280;29527;55.766;37.570;2023-07-13T06:38:21;98797.47;;;23.71;38.43
37792;BME280;29527;55.766;37.570;2023-07-13T06:40:47;98783.50;;;24.03;38.03
37792;BME280;29527;55.766;37.570;2023-07-13T06:43:13;98790.16;;;24.19;37.32
37792;BME280;29527;55.766;37.570;2023-07-13T06:45:44;98749.88;;;24.02;36.55
37792;BME280;29527;55.766;37.570;2023-07-13T06:48:19;98814.91;;;24.12;37.12
37792;BME280;29527;55.766;37.570;2023-07-13T06:50:47;98810.28;;;23.58;38.00
37792;BME280;29527;55.766;37.570;2023-07-13T06:53:13;98808.03;;;22.94;38.81
37792;BME280;29527;55.766;37.570;2023-07-13T06:55:39;98813.38;;;22.51;40.36
37792;BME280;29527;55.766;37.570;2023-07-13T06:58:05;98811.72;;;22.06;41.88
37792;BME280;29527;55.766;37.570;2023-07-13T07:00:32;98813.72;;;21.60;42.86
37792;BME280;29527;55.766;37.570;2023-07-13T07:02:57;98816.66;;;21.27;44.01
37792;BME280;29527;55.766;37.570;2023-07-13T07:05:23;98803.00;;;21.01;44.66
37792;BME280;29527;55.766;37.570;2023-07-13T07:07:53;98799.91;;;20.91;44.56
37792;BME280;29527;55.766;37.570;2023-07-13T07:10:19;98807.25;;;20.77;45.24
37792;BME280;29527;55.766;37.570;2023-07-13T07:12:45;98793.06;;;20.68;44.96
37792;BME280;29527;55.766;37.570;2023-07-13T07:15:12;98802.25;;;20.74;45.33
37792;BME280;29527;55.766;37.570;2023-07-13T07:17:38;98792.81;;;20.83;45.46
37792;BME280;29527;55.766;37.570;2023-07-13T07:20:04;98790.84;;;21.04;44.15
37792;BME280;29527;55.766;37.570;2023-07-13T07:22:31;98790.47;;;21.32;42.63
37792;BME280;29527;55.766;37.570;2023-07-13T07:24:57;98802.22;;;21.58;42.10
37792;BME280;29527;55.766;37.570;2023-07-13T07:27:23;98773.06;;;21.65;42.23
37792;BME280;29527;55.766;37.570;2023-07-13T07:29:49;98805.38;;;21.87;40.48
37792;BME280;29527;55.766;37.570;2023-07-13T07:32:15;98814.59;;;21.86;40.61
37792;BME280;29527;55.766;37.570;2023-07-13T07:34:40;98811.56;;;21.76;41.07
37792;BME280;29527;55.766;37.570;2023-07-13T07:37:06;98814.97;;;21.64;41.33
37792;BME280;29527;55.766;37.570;2023-07-13T07:39:32;98816.75;;;21.45;41.65
37792;BME280;29527;55.766;37.570;2023-07-13T07:41:58;98829.69;;;21.18;42.45
37792;BME280;29527;55.766;37.570;2023-07-13T07:44:24;98808.56;;;20.74;42.79
37792;BME280;29527;55.766;37.570;2023-07-13T07:46:49;98801.28;;;20.55;43.87
37792;BME280;29527;55.766;37.570;2023-07-13T07:49:15;98833.06;;;20.61;44.39
37792;BME280;29527;55.766;37.570;2023-07-13T07:51:41;98839.13;;;20.49;45.20
37792;BME280;29527;55.766;37.570;2023-07-13T07:54:06;98838.13;;;20.37;45.56
37792;BME280;29527;55.766;37.570;2023-07-13T07:56:32;98829.81;;;20.18;46.37
37792;BME280;29527;55.766;37.570;2023-07-13T07:58:58;98848.63;;;20.06;46.88
37792;BME280;29527;55.766;37.570;2023-07-13T08:01:24;98833.97;;;19.87;47.28
37792;BME280;29527;55.766;37.570;2023-07-13T08:03:50;98836.69;;;19.74;48.02
37792;BME280;29527;55.766;37.570;2023-07-13T08:06:16;98831.88;;;19.62;49.34
37792;BME280;29527;55.766;37.570;2023-07-13T08:08:42;98822.25;;;19.60;49.52
37792;BME280;29527;55.766;37.570;2023-07-13T08:11:08;98830.63;;;19.58;50.49
37792;BME280;29527;55.766;37.570;2023-07-13T08:13:34;98831.47;;;19.59;50.57
37792;BME280;29527;55.766;37.570;2023-07-13T08:16:01;98833.75;;;19.62;50.62
37792;BME280;29527;55.766;37.570;2023-07-13T08:18:27;98828.34;;;19.75;50.56
37792;BME280;29527;55.766;37.570;2023-07-13T08:20:55;98822.06;;;19.88;49.47
37792;BME280;29527;55.766;37.570;2023-07-13T08:23:22;98827.50;;;19.88;48.70
37792;BME280;29527;55.766;37.570;2023-07-13T08:25:52;98809.34;;;19.82;49.26
37792;BME280;29527;55.766;37.570;2023-07-13T08:28:19;98806.00;;;19.73;49.73
37792;BME280;29527;55.766;37.570;2023-07-13T08:30:45;98827.13;;;19.91;48.80
37792;BME280;29527;55.766;37.570;2023-07-13T08:33:21;98834.41;;;19.98;48.93
37792;BME280;29527;55.766;37.570;2023-07-13T08:35:49;98832.31;;;19.79;48.95
37792;BME280;29527;55.766;37.570;2023-07-13T08:38:16;98827.09;;;19.64;49.63
37792;BME280;29527;55.766;37.570;2023-07-13T08:40:43;98832.28;;;19.53;49.03
37792;BME280;29527;55.766;37.570;2023-07-13T08:43:15;98833.31;;;19.45;49.79
37792;BME280;29527;55.766;37.570;2023-07-13T08:48:21;98833.72;;;19.42;50.23
37792;BME280;29527;55.766;37.570;2023-07-13T08:50:56;98837.31;;;19.42;50.25
37792;BME280;29527;55.766;37.570;2023-07-13T08:53:28;98856.06;;;19.44;50.57
37792;BME280;29527;55.766;37.570;2023-07-13T08:55:58;98855.63;;;19.40;51.38
37792;BME280;29527;55.766;37.570;2023-07-13T08:58:25;98805.53;;;19.29;51.33
37792;BME280;29527;55.766;37.570;2023-07-13T09:01:21;98857.38;;;19.88;50.87
37792;BME280;29527;55.766;37.570;2023-07-13T09:06:27;98842.78;;;19.96;51.44
37792;BME280;29527;55.766;37.570;2023-07-13T09:14:49;98862.44;;;20.05;52.21
37792;BME280;29527;55.766;37.570;2023-07-13T09:17:35;98852.63;;;20.04;52.60
37792;BME280;29527;55.766;37.570;2023-07-13T09:20:18;98872.03;;;20.07;53.21
37792;BME280;29527;55.766;37.570;2023-07-13T09:22:45;98877.88;;;19.84;52.50
37792;BME280;29527;55.766;37.570;2023-07-13T09:25:31;98868.88;;;19.84;53.79
37792;BME280;29527;55.766;37.570;2023-07-13T09:28:02;98868.66;;;19.72;54.28
37792;BME280;29527;55.766;37.570;2023-07-13T09:33:29;98877.44;;;19.67;54.57
37792;BME280;29527;55.766;37.570;2023-07-13T09:35:59;98870.94;;;19.61;54.98
37792;BME280;29527;55.766;37.570;2023-07-13T09:38:27;98841.66;;;19.36;55.27
37792;BME280;29527;55.766;37.570;2023-07-13T09:41:33;98874.06;;;19.58;56.01
37792;BME280;29527;55.766;37.570;2023-07-13T09:44:18;98864.19;;;19.37;56.39
37792;BME280;29527;55.766;37.570;2023-07-13T09:46:54;98883.78;;;19.19;56.94
37792;BME280;29527;55.766;37.570;2023-07-13T09:49:27;98832.41;;;18.62;57.68
37792;BME280;29527;55.766;37.570;2023-07-13T09:52:02;98872.31;;;18.75;58.54
37792;BME280;29527;55.766;37.570;2023-07-13T09:54:28;98868.03;;;18.59;58.44
37792;BME280;29527;55.766;37.570;2023-07-13T09:56:58;98871.19;;;18.62;58.22
37792;BME280;29527;55.766;37.570;2023-07-13T09:59:28;98836.25;;;18.39;59.17
37792;BME280;29527;55.766;37.570;2023-07-13T10:01:54;98859.63;;;18.47;58.12
37792;BME280;29527;55.766;37.570;2023-07-13T10:04:27;98858.16;;;18.44;58.38
37792;BME280;29527;55.766;37.570;2023-07-13T10:07:06;98878.63;;;18.54;58.36
37792;BME280;29527;55.766;37.570;2023-07-13T10:09:32;98868.13;;;18.37;58.21
37792;BME280;29527;55.766;37.570;2023-07-13T10:11:58;98858.44;;;18.21;58.38
37792;BME280;29527;55.766;37.570;2023-07-13T10:14:24;98870.88;;;18.15;58.72
37792;BME280;29527;55.766;37.570;2023-07-13T10:16:58;98876.31;;;18.15;58.60
37792;BME280;29527;55.766;37.570;2023-07-13T10:19:30;98843.69;;;17.80;58.61
37792;BME280;29527;55.766;37.570;2023-07-13T10:22:00;98882.28;;;17.89;59.18
37792;BME280;29527;55.766;37.570;2023-07-13T10:24:30;98873.06;;;17.83;59.01
37792;BME280;29527;55.766;37.570;2023-07-13T10:27:15;98870.00;;;17.86;60.28
37792;BME280;29527;55.766;37.570;2023-07-13T10:32:36;98869.16;;;17.64;60.23
37792;BME280;29527;55.766;37.570;2023-07-13T10:35:01;98868.91;;;17.59;61.15
37792;BME280;29527;55.766;37.570;2023-07-13T10:37:42;98873.28;;;17.60;60.39
37792;BME280;29527;55.766;37.570;2023-07-13T10:40:21;98875.84;;;17.46;61.26
37792;BME280;29527;55.766;37.570;2023-07-13T10:42:51;98889.72;;;17.36;61.08
37792;BME280;29527;55.766;37.570;2023-07-13T10:45:21;98884.09;;;17.38;61.59
37792;BME280;29527;55.766;37.570;2023-07-13T10:47:50;98897.63;;;17.38;61.93
37792;BME280;29527;55.766;37.570;2023-07-13T10:50:26;98896.41;;;17.41;62.49
37792;BME280;29527;55.766;37.570;2023-07-13T10:53:17;98891.44;;;17.44;62.55
37792;BME280;29527;55.766;37.570;2023-07-13T11:00:51;98891.31;;;17.31;62.93
37792;BME280;29527;55.766;37.570;2023-07-13T11:03:20;98862.53;;;17.08;62.38
37792;BME280;29527;55.766;37.570;2023-07-13T11:05:51;98893.38;;;17.29;63.63
37792;BME280;29527;55.766;37.570;2023-07-13T11:10:56;98888.16;;;17.12;62.56
37792;BME280;29527;55.766;37.570;2023-07-13T11:16:43;98877.19;;;17.14;63.29
37792;BME280;29527;55.766;37.570;2023-07-13T11:24:56;98880.63;;;17.07;63.49
37792;BME280;29527;55.766;37.570;2023-07-13T11:27:36;98878.50;;;17.03;62.64
37792;BME280;29527;55.766;37.570;2023-07-13T11:32:50;98872.25;;;17.02;63.63
37792;BME280;29527;55.766;37.570;2023-07-13T11:35:22;98878.75;;;17.08;63.73
37792;BME280;29527;55.766;37.570;2023-07-13T11:37:51;98834.56;;;16.86;62.93
37792;BME280;29527;55.766;37.570;2023-07-13T11:40:18;98873.53;;;17.06;62.79
37792;BME280;29527;55.766;37.570;2023-07-13T11:42:45;98868.59;;;17.10;64.01
37792;BME280;29527;55.766;37.570;2023-07-13T11:45:21;98871.00;;;17.20;64.42
37792;BME280;29527;55.766;37.570;2023-07-13T11:47:50;98866.72;;;17.11;64.67
37792;BME280;29527;55.766;37.570;2023-07-13T11:50:20;98865.69;;;17.12;64.51
37792;BME280;29527;55.766;37.570;2023-07-13T11:52:46;98869.38;;;17.04;65.16
37792;BME280;29527;55.766;37.570;2023-07-13T11:55:16;98869.16;;;17.05;65.58
37792;BME280;29527;55.766;37.570;2023-07-13T11:57:50;98875.22;;;17.07;65.30
37792;BME280;29527;55.766;37.570;2023-07-13T12:00:22;98875.22;;;17.07;65.95
37792;BME280;29527;55.766;37.570;2023-07-13T12:02:51;98837.28;;;16.86;65.43
37792;BME280;29527;55.766;37.570;2023-07-13T12:05:19;98876.06;;;17.08;66.83
37792;BME280;29527;55.766;37.570;2023-07-13T12:07:46;98872.72;;;17.06;66.57
37792;BME280;29527;55.766;37.570;2023-07-13T12:13:04;98877.44;;;17.19;66.42
37792;BME280;29527;55.766;37.570;2023-07-13T12:15:38;98879.69;;;17.15;66.29
37792;BME280;29527;55.766;37.570;2023-07-13T12:18:14;98880.31;;;17.17;66.43
37792;BME280;29527;55.766;37.570;2023-07-13T12:20:40;98871.47;;;17.08;66.48
37792;BME280;29527;55.766;37.570;2023-07-13T12:23:20;98878.72;;;17.23;66.86
37792;BME280;29527;55.766;37.570;2023-07-13T12:25:47;98852.66;;;17.00;65.75
37792;BME280;29527;55.766;37.570;2023-07-13T12:28:36;98877.78;;;17.31;66.19
37792;BME280;29527;55.766;37.570;2023-07-13T12:33:47;98871.25;;;17.25;65.82
37792;BME280;29527;55.766;37.570;2023-07-13T12:36:13;98864.19;;;17.24;65.69
37792;BME280;29527;55.766;37.570;2023-07-13T12:38:38;98864.00;;;17.26;66.15
37792;BME280;29527;55.766;37.570;2023-07-13T12:41:08;98858.84;;;17.31;66.15
37792;BME280;29527;55.766;37.570;2023-07-13T12:43:36;98863.41;;;17.30;66.04
37792;BME280;29527;55.766;37.570;2023-07-13T12:46:18;98862.84;;;17.35;65.25
37792;BME280;29527;55.766;37.570;2023-07-13T12:48:49;98855.88;;;17.26;64.69
37792;BME280;29527;55.766;37.570;2023-07-13T12:51:15;98864.69;;;17.13;65.23
37792;BME280;29527;55.766;37.570;2023-07-13T12:53:47;98841.94;;;16.92;65.19
37792;BME280;29527;55.766;37.570;2023-07-13T12:56:19;98862.28;;;17.03;65.56
37792;BME280;29527;55.766;37.570;2023-07-13T12:58:47;98852.09;;;16.90;66.10
37792;BME280;29527;55.766;37.570;2023-07-13T13:01:17;98852.94;;;16.90;65.96
37792;BME280;29527;55.766;37.570;2023-07-13T13:03:48;98819.66;;;16.75;66.13
37792;BME280;29527;55.766;37.570;2023-07-13T13:08:50;98857.59;;;16.82;66.02
37792;BME280;29527;55.766;37.570;2023-07-13T13:11:17;98853.59;;;16.77;66.39
37792;BME280;29527;55.766;37.570;2023-07-13T13:13:49;98863.47;;;16.85;67.46
37792;BME280;29527;55.766;37.570;2023-07-13T13:16:19;98861.53;;;16.79;67.05
37792;BME280;29527;55.766;37.570;2023-07-13T13:18:45;98861.06;;;16.75;67.42
37792;BME280;29527;55.766;37.570;2023-07-13T13:21:11;98859.78;;;16.71;67.31
37792;BME280;29527;55.766;37.570;2023-07-13T13:23:37;98860.78;;;16.70;68.27
37792;BME280;29527;55.766;37.570;2023-07-13T13:26:05;98858.53;;;16.74;68.27
37792;BME280;29527;55.766;37.570;2023-07-13T13:28:33;98867.88;;;16.71;67.45
37792;BME280;29527;55.766;37.570;2023-07-13T13:30:58;98858.53;;;16.74;66.94
37792;BME280;29527;55.766;37.570;2023-07-13T13:33:24;98853.06;;;16.67;66.90
37792;BME280;29527;55.766;37.570;2023-07-13T13:35:49;98850.75;;;16.64;67.39
37792;BME280;29527;55.766;37.570;2023-07-13T13:38:19;98844.66;;;16.62;67.53
37792;BME280;29527;55.766;37.570;2023-07-13T13:40:45;98850.91;;;16.62;67.45
37792;BME280;29527;55.766;37.570;2023-07-13T13:43:22;98837.59;;;16.61;68.05
37792;BME280;29527;55.766;37.570;2023-07-13T13:45:56;98854.56;;;16.55;67.82